Time;durP1;ratioP1;P1;durP2;ratioP2;P2;SDS_P1;SDS_P2;PMS_P1;PMS_P2;Temp;Humidity;BMP_temperature;BMP_pressure;BME280_temperature;BME280_humidity;BME280_pressure;Samples;Min_cycle;Max_cycle;Signal;HPM_P1;HPM_P2
2022/01/16 00:00:26;;;;;;;58.22;26.55;;;2.10;99.90;;;;;;5059526;28;20063;-67
2022/01/16 00:05:26;;;;;;;53.30;25.48;;;2.10;99.90;;;;;;5092064;28;20131;-68
2022/01/16 00:07:53;;;;;;;61.05;25.83;;;2.00;99.90;;;;;;5091824;28;20446;-69
2022/01/16 00:10:19;;;;;;;61.30;26.20;;;2.00;99.90;;;;;;5088774;28;20048;-66
2022/01/16 00:12:49;;;;;;;65.82;27.80;;;2.00;99.90;;;;;;5073182;28;20059;-67
2022/01/16 00:15:16;;;;;;;64.07;27.17;;;1.90;99.90;;;;;;5092058;28;20055;-66
2022/01/16 00:17:53;;;;;;;57.42;26.65;;;1.90;99.90;;;;;;5091918;28;20372;-67
2022/01/16 00:20:21;;;;;;;69.03;27.77;;;2.00;99.90;;;;;;5092033;28;20044;-66
2022/01/16 00:22:48;;;;;;;65.40;27.50;;;2.00;99.90;;;;;;5090649;28;20056;-66
2022/01/16 00:25:15;;;;;;;60.67;26.45;;;2.00;99.90;;;;;;5092382;28;20400;-66
2022/01/16 00:27:41;;;;;;;60.53;28.02;;;1.90;99.90;;;;;;5091433;28;20052;-67
2022/01/16 00:30:09;;;;;;;59.85;27.55;;;2.00;99.90;;;;;;5093151;28;20370;-66
2022/01/16 00:32:35;;;;;;;64.18;28.92;;;1.90;99.90;;;;;;5092340;28;20055;-67
2022/01/16 00:35:01;;;;;;;72.00;28.65;;;1.80;99.90;;;;;;5091895;28;20044;-68
2022/01/16 00:37:26;;;;;;;61.35;27.98;;;1.80;99.90;;;;;;5090764;28;20117;-67
2022/01/16 00:39:53;;;;;;;64.07;27.75;;;1.80;99.90;;;;;;5073103;28;20053;-67
2022/01/16 00:42:18;;;;;;;68.40;28.40;;;1.80;99.90;;;;;;5071817;28;20369;-67
2022/01/16 00:44:44;;;;;;;65.25;28.25;;;1.70;99.90;;;;;;5073893;28;20519;-65
2022/01/16 00:47:10;;;;;;;69.47;27.98;;;1.70;99.90;;;;;;5091829;28;20055;-66
2022/01/16 00:49:39;;;;;;;66.13;28.83;;;1.80;99.90;;;;;;5091909;28;20476;-66
2022/01/16 00:52:06;;;;;;;60.17;26.80;;;1.80;99.90;;;;;;5095609;28;20052;-67
2022/01/16 00:54:32;;;;;;;60.40;27.10;;;1.80;99.90;;;;;;5095495;28;20087;-67
2022/01/16 00:56:58;;;;;;;56.30;24.95;;;1.80;99.90;;;;;;5095840;28;20080;-66
2022/01/16 00:59:23;;;;;;;55.08;25.30;;;1.70;99.90;;;;;;5094231;28;20060;-67
2022/01/16 01:01:49;;;;;;;56.92;25.45;;;1.70;99.90;;;;;;5094864;28;20042;-67
2022/01/16 01:04:15;;;;;;;52.90;24.63;;;1.70;99.90;;;;;;5095432;28;20563;-66
2022/01/16 01:06:41;;;;;;;52.45;24.17;;;1.70;99.90;;;;;;5091350;28;20523;-67
2022/01/16 01:09:06;;;;;;;51.42;23.13;;;1.60;99.90;;;;;;5075549;28;20144;-67
2022/01/16 01:11:32;;;;;;;54.78;24.05;;;1.60;99.90;;;;;;5075165;28;20052;-66
2022/01/16 01:16:37;;;;;;;58.20;25.35;;;1.60;99.90;;;;;;5094680;28;20040;-67
2022/01/16 01:19:03;;;;;;;58.15;25.23;;;1.50;99.90;;;;;;5095574;28;20052;-66
2022/01/16 01:21:29;;;;;;;59.78;25.70;;;1.50;99.90;;;;;;5094101;28;20403;-66
2022/01/16 01:23:57;;;;;;;63.90;28.33;;;1.50;99.90;;;;;;5095417;28;20050;-65
2022/01/16 01:26:27;;;;;;;69.10;28.17;;;1.50;99.90;;;;;;5094844;28;20083;-67
2022/01/16 01:28:53;;;;;;;69.43;27.30;;;1.40;99.90;;;;;;5096798;28;20205;-66
2022/01/16 01:31:18;;;;;;;66.70;27.08;;;1.50;99.90;;;;;;5095177;28;20135;-66
2022/01/16 01:33:44;;;;;;;81.90;28.63;;;1.40;99.90;;;;;;5096285;28;20075;-66
2022/01/16 01:36:09;;;;;;;78.65;30.50;;;1.40;99.90;;;;;;5088414;28;20071;-66
2022/01/16 01:38:35;;;;;;;75.60;29.25;;;1.40;99.90;;;;;;5095169;28;20051;-66
2022/01/16 01:41:01;;;;;;;85.13;30.52;;;1.40;99.90;;;;;;5094713;28;20047;-67
2022/01/16 01:51:27;;;;;;;80.80;31.10;;;1.50;99.90;;;;;;5095818;28;20048;-66
2022/01/16 01:53:56;;;;;;;86.05;29.63;;;1.50;99.90;;;;;;5086208;28;20048;-66
2022/01/16 01:56:23;;;;;;;88.97;31.70;;;1.50;99.90;;;;;;5086829;28;20422;-66
2022/01/16 01:58:54;;;;;;;83.32;29.60;;;1.60;99.90;;;;;;5077884;28;20055;-67
2022/01/16 02:01:21;;;;;;;91.55;32.53;;;1.50;99.90;;;;;;5092869;28;20480;-67
2022/01/16 02:03:48;;;;;;;90.80;32.30;;;1.50;99.90;;;;;;5094547;28;20052;-66
2022/01/16 02:06:16;;;;;;;93.78;32.90;;;1.60;99.90;;;;;;5094084;28;20097;-67
2022/01/16 02:08:43;;;;;;;101.65;33.70;;;1.60;99.90;;;;;;5094509;28;20536;-66
2022/01/16 02:11:11;;;;;;;95.95;34.50;;;1.60;99.90;;;;;;5077062;28;20464;-67
2022/01/16 02:13:47;;;;;;;101.32;34.50;;;1.60;99.90;;;;;;5094059;28;20056;-67
2022/01/16 02:30:36;;;;;;;98.13;33.47;;;1.70;99.90;;;;;;5075459;28;20052;-67
2022/01/16 02:35:09;;;;;;;106.78;35.55;;;1.80;99.90;;;;;;5087484;28;20075;-68
2022/01/16 02:37:34;;;;;;;105.13;35.60;;;1.80;99.90;;;;;;5088465;28;20051;-67
2022/01/16 02:40:08;;;;;;;99.63;34.70;;;1.80;99.90;;;;;;5074265;28;20072;-67
2022/01/16 02:42:38;;;;;;;103.60;36.13;;;1.80;99.90;;;;;;5073411;28;20059;-68
2022/01/16 02:45:06;;;;;;;118.95;38.20;;;1.90;99.90;;;;;;5082275;28;20048;-66
2022/01/16 02:47:32;;;;;;;115.43;35.92;;;1.90;99.90;;;;;;5066723;28;20051;-67
2022/01/16 02:50:00;;;;;;;109.15;36.58;;;1.90;99.90;;;;;;5091672;28;20054;-67
2022/01/16 02:52:26;;;;;;;114.63;37.60;;;1.90;99.90;;;;;;5076947;28;20063;-67
2022/01/16 02:54:54;;;;;;;108.90;34.40;;;1.90;99.90;;;;;;5094856;28;20476;-67
2022/01/16 02:57:21;;;;;;;127.03;37.97;;;1.90;99.90;;;;;;5094589;28;20051;-67
2022/01/16 02:59:55;;;;;;;124.40;37.80;;;2.00;99.90;;;;;;5092779;28;20083;-66
2022/01/16 03:02:23;;;;;;;95.60;33.63;;;2.00;99.90;;;;;;5092387;28;20135;-66
2022/01/16 03:04:49;;;;;;;119.30;36.45;;;1.90;99.90;;;;;;5073544;28;20473;-68
2022/01/16 03:07:15;;;;;;;103.53;34.78;;;2.00;99.90;;;;;;5082870;28;20063;-67
2022/01/16 03:12:13;;;;;;;124.40;35.47;;;2.00;99.90;;;;;;5092032;28;20052;-66
2022/01/16 03:14:39;;;;;;;136.07;36.70;;;2.00;99.90;;;;;;5092505;28;20200;-66
2022/01/16 03:17:04;;;;;;;120.75;35.13;;;2.00;99.90;;;;;;5125874;27;20044;-67
2022/01/16 03:22:14;;;;;;;117.40;35.50;;;2.00;99.90;;;;;;5094019;28;20052;-66
2022/01/16 03:24:42;;;;;;;111.57;35.28;;;2.00;99.90;;;;;;5092989;28;20048;-66
2022/01/16 03:27:12;;;;;;;118.60;33.75;;;2.00;99.90;;;;;;5092812;28;20117;-69
2022/01/16 03:29:39;;;;;;;126.00;35.30;;;2.00;99.90;;;;;;5093385;28;20101;-66
2022/01/16 03:32:08;;;;;;;122.28;37.13;;;2.00;99.90;;;;;;5092335;28;20336;-65
2022/01/16 03:34:34;;;;;;;116.55;34.15;;;2.00;99.90;;;;;;5094072;28;20058;-65
2022/01/16 03:36:59;;;;;;;117.25;35.05;;;2.00;99.90;;;;;;5094188;28;20043;-67
2022/01/16 03:39:25;;;;;;;116.13;36.63;;;2.00;99.90;;;;;;5094140;28;20602;-65
2022/01/16 03:41:51;;;;;;;113.45;35.67;;;2.00;99.90;;;;;;5092648;28;20476;-66
2022/01/16 03:44:16;;;;;;;119.93;38.63;;;2.10;99.90;;;;;;5079470;28;20075;-67
2022/01/16 03:46:43;;;;;;;119.90;36.80;;;2.10;99.90;;;;;;5074162;28;20048;-66
2022/01/16 03:49:14;;;;;;;118.43;36.05;;;2.00;99.90;;;;;;5092781;28;20082;-66
2022/01/16 03:51:42;;;;;;;107.30;33.83;;;2.10;99.90;;;;;;5092737;28;20052;-66
2022/01/16 03:54:09;;;;;;;108.35;36.35;;;2.10;99.90;;;;;;5094287;28;20052;-68
2022/01/16 03:56:35;;;;;;;112.85;35.75;;;2.10;99.90;;;;;;5125968;27;20048;-65
2022/01/16 03:59:01;;;;;;;118.95;36.20;;;2.10;99.90;;;;;;5091842;28;20048;-66
2022/01/16 04:01:27;;;;;;;114.88;35.35;;;2.10;99.90;;;;;;5074951;28;20059;-67
2022/01/16 04:03:54;;;;;;;121.03;36.53;;;2.20;99.90;;;;;;5092387;28;20048;-67
2022/01/16 04:06:20;;;;;;;109.13;34.78;;;2.20;99.90;;;;;;5081145;28;20060;-68
2022/01/16 04:08:51;;;;;;;104.38;33.90;;;2.20;99.90;;;;;;5073632;28;20078;-67
2022/01/16 04:11:18;;;;;;;118.50;34.47;;;2.20;99.90;;;;;;5071946;28;20052;-68
2022/01/16 04:13:50;;;;;;;106.00;34.22;;;2.30;99.90;;;;;;5086382;28;20044;-67
2022/01/16 04:16:18;;;;;;;111.32;34.38;;;2.20;99.90;;;;;;5091357;28;20048;-67
2022/01/16 04:18:43;;;;;;;121.63;37.53;;;2.30;99.90;;;;;;5092146;28;20058;-66
2022/01/16 04:21:09;;;;;;;110.05;35.15;;;2.30;99.90;;;;;;5091682;28;20048;-66
2022/01/16 04:23:35;;;;;;;111.88;34.13;;;2.30;99.90;;;;;;5091461;28;20098;-67
2022/01/16 04:26:00;;;;;;;107.85;35.38;;;2.30;99.90;;;;;;5092183;28;20048;-67
2022/01/16 04:28:26;;;;;;;112.28;35.08;;;2.30;99.90;;;;;;5083983;28;20056;-66
2022/01/16 04:30:52;;;;;;;115.30;34.63;;;2.40;99.90;;;;;;5091582;28;20447;-67
2022/01/16 04:33:18;;;;;;;118.85;35.55;;;2.40;99.90;;;;;;5091950;28;20056;-67
2022/01/16 04:35:43;;;;;;;124.15;36.88;;;2.40;99.90;;;;;;5091181;28;20130;-65
2022/01/16 04:38:09;;;;;;;119.85;37.78;;;2.40;99.90;;;;;;5091410;28;20448;-67
2022/01/16 04:40:43;;;;;;;109.82;34.15;;;2.40;99.90;;;;;;5071765;28;20382;-66
2022/01/16 04:45:59;;;;;;;115.63;35.05;;;2.40;99.90;;;;;;5085561;28;20052;-66
2022/01/16 04:48:25;;;;;;;119.53;35.35;;;2.50;99.90;;;;;;5071414;28;20059;-67
2022/01/16 04:50:51;;;;;;;111.55;35.28;;;2.50;99.90;;;;;;5071743;28;20056;-67
2022/01/16 04:53:17;;;;;;;122.38;36.92;;;2.50;99.90;;;;;;5072675;28;20052;-66
2022/01/16 04:55:43;;;;;;;126.18;37.72;;;2.60;99.90;;;;;;5072922;28;20048;-65
2022/01/16 04:58:09;;;;;;;130.93;38.47;;;2.60;99.90;;;;;;5080845;28;20052;-65
2022/01/16 05:00:34;;;;;;;121.82;37.75;;;2.60;99.90;;;;;;5092864;28;20059;-67
2022/01/16 05:03:00;;;;;;;112.82;35.00;;;2.60;99.90;;;;;;5090995;28;20081;-65
2022/01/16 05:05:25;;;;;;;113.25;35.40;;;2.60;99.90;;;;;;5091555;28;20075;-67
2022/01/16 05:07:51;;;;;;;114.75;38.03;;;2.60;99.90;;;;;;5075404;28;20083;-66
2022/01/16 05:10:16;;;;;;;109.03;35.20;;;2.60;99.90;;;;;;5071765;28;20056;-68
2022/01/16 05:12:45;;;;;;;117.88;35.75;;;2.60;99.90;;;;;;5105025;28;20036;-66
2022/01/16 05:17:55;;;;;;;109.85;36.28;;;2.70;99.90;;;;;;5070317;28;20499;-66
2022/01/16 05:20:21;;;;;;;106.35;35.40;;;2.70;99.90;;;;;;5070881;28;20127;-66
2022/01/16 05:22:47;;;;;;;111.55;35.20;;;2.60;99.90;;;;;;5071074;28;20129;-66
2022/01/16 05:25:15;;;;;;;116.78;36.63;;;2.70;99.90;;;;;;5071464;28;20057;-67
2022/01/16 05:27:41;;;;;;;106.57;34.40;;;2.70;99.90;;;;;;5079510;28;20464;-69
2022/01/16 05:30:07;;;;;;;110.75;36.65;;;2.60;99.90;;;;;;5090248;28;20097;-66
2022/01/16 05:32:33;;;;;;;107.68;34.10;;;2.70;99.90;;;;;;5071568;28;20485;-67
2022/01/16 05:34:58;;;;;;;105.63;35.97;;;2.70;99.90;;;;;;5070811;28;20132;-66
2022/01/16 05:37:24;;;;;;;103.85;34.58;;;2.80;99.90;;;;;;5074902;28;20056;-66
2022/01/16 05:39:49;;;;;;;109.03;35.03;;;2.80;99.90;;;;;;5074277;28;20044;-66
2022/01/16 05:42:15;;;;;;;110.57;36.00;;;2.80;99.90;;;;;;5081588;28;20061;-67
2022/01/16 05:44:41;;;;;;;103.25;34.45;;;2.80;99.90;;;;;;5094927;28;20048;-66
2022/01/16 05:47:10;;;;;;;108.85;37.33;;;2.80;99.90;;;;;;5095590;28;20052;-67
2022/01/16 05:49:36;;;;;;;104.72;35.10;;;2.80;99.90;;;;;;5095923;28;20082;-66
2022/01/16 05:52:01;;;;;;;107.60;37.13;;;2.90;99.90;;;;;;5093876;28;20080;-66
2022/01/16 05:54:27;;;;;;;112.45;35.95;;;2.90;99.90;;;;;;5078100;28;20068;-66
2022/01/16 05:56:52;;;;;;;109.75;34.10;;;2.80;99.90;;;;;;5074361;28;20057;-67
2022/01/16 05:59:18;;;;;;;105.45;34.90;;;2.90;99.90;;;;;;5074766;28;20041;-66
2022/01/16 06:01:43;;;;;;;111.65;35.75;;;2.90;99.90;;;;;;5073468;28;20488;-67
2022/01/16 06:04:09;;;;;;;109.78;37.05;;;2.90;99.90;;;;;;5057679;28;20071;-67
2022/01/16 06:06:34;;;;;;;97.85;36.42;;;2.90;99.90;;;;;;5073983;28;20063;-66
2022/01/16 06:09:00;;;;;;;107.05;34.67;;;2.90;99.90;;;;;;5088196;28;20091;-67
2022/01/16 06:11:25;;;;;;;108.15;37.45;;;2.90;99.90;;;;;;5093150;28;20101;-67
2022/01/16 06:13:52;;;;;;;109.43;35.75;;;2.90;99.90;;;;;;5094366;28;20052;-67
2022/01/16 06:16:18;;;;;;;107.95;36.22;;;2.90;99.90;;;;;;5094792;28;20052;-68
2022/01/16 06:18:43;;;;;;;110.47;35.78;;;2.90;99.90;;;;;;5094426;28;20066;-66
2022/01/16 06:21:09;;;;;;;113.00;35.95;;;2.90;99.90;;;;;;5094197;28;20114;-66
2022/01/16 06:23:34;;;;;;;109.70;38.17;;;3.00;99.90;;;;;;5093844;28;20407;-67
2022/01/16 06:26:00;;;;;;;123.93;39.40;;;3.00;99.90;;;;;;5094555;28;20500;-66
2022/01/16 06:28:28;;;;;;;116.47;37.30;;;3.00;99.90;;;;;;5093673;28;20056;-67
2022/01/16 06:30:53;;;;;;;111.03;36.85;;;3.00;99.90;;;;;;5084885;28;20052;-66
2022/01/16 06:33:19;;;;;;;130.90;38.38;;;3.00;99.90;;;;;;5073882;28;20055;-69
2022/01/16 06:35:45;;;;;;;113.75;37.22;;;3.00;99.90;;;;;;5073624;28;20132;-66
2022/01/16 06:38:10;;;;;;;126.13;37.78;;;3.00;99.90;;;;;;5084199;28;20052;-67
2022/01/16 06:40:36;;;;;;;116.13;37.42;;;3.00;99.90;;;;;;5093824;28;20063;-68
2022/01/16 06:43:02;;;;;;;119.93;39.33;;;3.00;99.90;;;;;;5093012;28;20168;-66
2022/01/16 06:45:31;;;;;;;123.55;38.20;;;3.00;99.90;;;;;;5084712;28;20048;-66
2022/01/16 06:47:56;;;;;;;124.78;38.20;;;3.10;99.90;;;;;;5085557;28;20067;-66
2022/01/16 06:50:22;;;;;;;116.32;37.45;;;3.00;99.90;;;;;;5084372;28;20043;-67
2022/01/16 06:52:47;;;;;;;117.22;37.17;;;3.10;99.90;;;;;;5113930;28;20066;-67
2022/01/16 06:55:13;;;;;;;123.45;39.03;;;3.10;99.90;;;;;;5089816;28;20059;-67
2022/01/16 06:57:38;;;;;;;124.22;38.28;;;3.10;99.90;;;;;;5081566;28;20144;-67
2022/01/16 07:00:06;;;;;;;132.10;40.72;;;3.10;99.90;;;;;;5082451;28;20048;-65
2022/01/16 07:02:32;;;;;;;124.25;40.05;;;3.10;99.90;;;;;;5077596;28;20552;-66
2022/01/16 07:04:57;;;;;;;115.45;38.13;;;3.20;99.90;;;;;;5057007;28;20135;-68
2022/01/16 07:07:23;;;;;;;118.15;37.42;;;3.20;99.90;;;;;;5089545;28;20079;-67
2022/01/16 07:09:49;;;;;;;115.18;39.55;;;3.20;99.90;;;;;;5075038;28;20051;-67
2022/01/16 07:12:15;;;;;;;119.78;38.08;;;3.20;99.90;;;;;;5072998;28;20075;-67
2022/01/16 07:14:41;;;;;;;117.20;38.97;;;3.20;99.90;;;;;;5064157;28;20062;-66
2022/01/16 07:17:07;;;;;;;120.25;39.92;;;3.30;99.90;;;;;;5087473;28;20052;-68
2022/01/16 07:19:32;;;;;;;124.05;41.20;;;3.30;99.90;;;;;;5075878;28;20056;-67
2022/01/16 07:21:58;;;;;;;124.43;40.67;;;3.30;99.90;;;;;;5066918;28;20048;-66
2022/01/16 07:24:24;;;;;;;125.85;40.00;;;3.30;99.90;;;;;;5090669;28;20044;-67
2022/01/16 07:26:50;;;;;;;121.10;39.10;;;3.40;99.90;;;;;;5106464;28;20096;-66
2022/01/16 07:29:15;;;;;;;119.15;38.67;;;3.40;99.90;;;;;;5072851;28;20105;-67
2022/01/16 07:31:41;;;;;;;109.47;37.92;;;3.40;99.90;;;;;;5090889;28;20437;-66
2022/01/16 07:34:08;;;;;;;109.53;37.67;;;3.40;99.90;;;;;;5086002;28;20048;-67
2022/01/16 07:36:34;;;;;;;108.32;38.20;;;3.40;99.90;;;;;;5081211;28;20047;-66
2022/01/16 07:39:00;;;;;;;120.78;41.13;;;3.50;99.90;;;;;;5071809;28;20099;-67
2022/01/16 07:41:27;;;;;;;121.32;40.60;;;3.50;99.90;;;;;;5075435;28;20384;-66
2022/01/16 07:43:52;;;;;;;115.50;41.13;;;3.50;99.90;;;;;;5082618;28;20127;-66
2022/01/16 07:46:19;;;;;;;118.75;40.90;;;3.50;99.90;;;;;;5079155;28;20485;-66
2022/01/16 07:48:45;;;;;;;119.95;39.13;;;3.50;99.90;;;;;;5102269;28;20050;-67
2022/01/16 07:51:10;;;;;;;110.25;39.72;;;3.60;99.90;;;;;;5096483;28;20435;-68
2022/01/16 07:53:37;;;;;;;124.80;40.65;;;3.60;99.90;;;;;;5074795;28;20054;-66
2022/01/16 07:56:04;;;;;;;120.30;40.95;;;3.60;99.90;;;;;;5092154;28;20476;-66
2022/01/16 07:58:46;;;;;;;110.30;37.80;;;3.60;99.90;;;;;;5075196;28;20051;-67
2022/01/16 08:01:11;;;;;;;130.32;41.05;;;3.60;99.90;;;;;;5087540;28;20119;-67
2022/01/16 08:04:03;;;;;;;111.10;39.63;;;3.70;99.90;;;;;;5081842;28;20128;-66
2022/01/16 08:06:29;;;;;;;116.82;38.80;;;3.70;99.90;;;;;;5093207;28;20056;-67
2022/01/16 08:08:56;;;;;;;110.07;38.08;;;3.70;99.90;;;;;;5091315;28;20109;-69
2022/01/16 08:11:22;;;;;;;111.70;39.35;;;3.90;99.90;;;;;;5075086;28;20044;-67
2022/01/16 08:13:47;;;;;;;116.15;40.15;;;3.80;99.90;;;;;;5091552;28;20059;-68
2022/01/16 08:16:14;;;;;;;112.28;40.60;;;3.90;99.90;;;;;;5091463;28;20048;-68
2022/01/16 08:18:40;;;;;;;115.60;38.80;;;3.90;99.90;;;;;;5091392;28;20051;-66
2022/01/16 08:21:06;;;;;;;116.53;39.90;;;3.90;99.90;;;;;;5091571;28;20056;-67
2022/01/16 08:23:32;;;;;;;107.93;39.08;;;3.90;99.90;;;;;;5091673;28;20055;-68
2022/01/16 08:26:01;;;;;;;106.28;39.40;;;3.90;99.90;;;;;;5092030;28;20056;-68
2022/01/16 08:28:27;;;;;;;108.45;40.08;;;3.80;99.90;;;;;;5091829;28;20131;-67
2022/01/16 08:30:53;;;;;;;97.80;39.47;;;4.00;99.90;;;;;;5074717;28;20128;-67
2022/01/16 08:33:19;;;;;;;112.25;41.33;;;4.30;99.90;;;;;;5092400;28;20062;-67
2022/01/16 08:35:44;;;;;;;103.47;37.95;;;4.20;99.90;;;;;;5091515;28;20054;-68
2022/01/16 08:38:10;;;;;;;111.03;40.72;;;4.40;99.90;;;;;;5074436;28;20153;-68
2022/01/16 08:40:36;;;;;;;110.32;41.63;;;4.20;99.90;;;;;;5092073;28;20044;-67
2022/01/16 08:43:08;;;;;;;96.60;40.88;;;4.30;99.90;;;;;;5091465;28;20051;-67
2022/01/16 08:45:41;;;;;;;97.25;39.72;;;4.70;99.90;;;;;;5091798;28;20135;-68
2022/01/16 08:48:10;;;;;;;98.25;38.28;;;4.20;99.90;;;;;;5091638;28;20124;-67
2022/01/16 08:50:37;;;;;;;96.35;39.08;;;4.70;99.90;;;;;;5092526;28;20056;-65
2022/01/16 08:53:03;;;;;;;89.60;36.67;;;4.60;99.90;;;;;;5091775;28;20075;-67
2022/01/16 08:55:29;;;;;;;99.85;39.70;;;4.30;99.90;;;;;;5091954;28;20484;-67
2022/01/16 08:57:59;;;;;;;98.88;38.78;;;4.30;99.90;;;;;;5091520;28;20059;-67
2022/01/16 09:00:25;;;;;;;91.05;38.33;;;4.10;99.90;;;;;;5074709;28;20059;-67
2022/01/16 09:02:51;;;;;;;88.85;37.50;;;4.40;99.90;;;;;;5090576;28;20101;-66
2022/01/16 09:05:16;;;;;;;89.03;38.78;;;5.10;99.90;;;;;;5091386;28;20052;-68
2022/01/16 09:07:42;;;;;;;88.20;38.13;;;4.50;99.90;;;;;;5091371;28;20052;-66
2022/01/16 09:10:09;;;;;;;88.20;38.05;;;4.50;99.90;;;;;;5091975;28;20500;-66
2022/01/16 09:12:35;;;;;;;87.80;35.63;;;4.50;99.90;;;;;;5094921;28;20119;-67
2022/01/16 09:15:05;;;;;;;81.38;36.30;;;4.60;99.90;;;;;;5095913;28;20051;-67
2022/01/16 09:17:30;;;;;;;88.10;37.05;;;4.70;99.90;;;;;;5095202;28;20396;-67
2022/01/16 09:23:08;;;;;;;72.68;34.25;;;5.30;99.90;;;;;;5085700;28;20055;-67
2022/01/16 09:25:34;;;;;;;66.57;33.30;;;4.90;99.90;;;;;;5095028;28;20408;-67
2022/01/16 09:28:01;;;;;;;64.72;31.95;;;5.00;99.90;;;;;;5094943;28;20048;-68
2022/01/16 09:30:28;;;;;;;71.57;34.38;;;5.00;99.90;;;;;;5096265;28;20055;-67
2022/01/16 09:32:57;;;;;;;65.13;30.85;;;5.30;99.90;;;;;;5093979;28;20048;-67
2022/01/16 09:35:23;;;;;;;70.50;32.13;;;5.10;99.90;;;;;;5094590;28;20072;-67
2022/01/16 09:37:50;;;;;;;65.65;31.40;;;5.20;99.90;;;;;;5095553;28;20056;-68
2022/01/16 09:40:19;;;;;;;64.25;32.47;;;5.30;99.90;;;;;;5094866;28;20122;-67
2022/01/16 09:42:45;;;;;;;59.65;30.77;;;5.30;99.90;;;;;;5094468;28;20041;-67
2022/01/16 09:45:14;;;;;;;61.25;30.63;;;5.30;99.90;;;;;;5095286;28;20051;-68
2022/01/16 09:47:39;;;;;;;62.78;30.92;;;5.30;99.90;;;;;;5094686;28;20074;-67
2022/01/16 09:50:10;;;;;;;56.75;29.13;;;5.40;99.90;;;;;;5095403;28;20469;-67
2022/01/16 09:52:43;;;;;;;57.47;27.98;;;6.30;99.90;;;;;;5094536;28;20066;-66
2022/01/16 09:55:09;;;;;;;;;;;5.40;99.90;;;;;;5095436;28;20067;-67
2022/01/16 09:57:35;;;;;;;60.05;28.73;;;5.40;99.90;;;;;;5094555;28;19920;-67
2022/01/16 10:00:03;;;;;;;54.20;29.75;;;5.40;99.90;;;;;;5094091;28;20480;-67
2022/01/16 10:02:29;;;;;;;58.95;30.73;;;5.50;99.90;;;;;;5093317;28;20044;-67
2022/01/16 10:04:55;;;;;;;57.92;30.00;;;5.50;99.90;;;;;;5094529;28;20051;-67
2022/01/16 10:07:20;;;;;;;61.00;29.90;;;5.50;99.90;;;;;;5094518;28;20052;-67
2022/01/16 10:10:09;;;;;;;54.88;29.50;;;5.50;99.90;;;;;;5078409;28;20822;-66
2022/01/16 10:12:35;;;;;;;55.42;29.90;;;5.50;99.90;;;;;;5093870;28;20052;-67
2022/01/16 10:15:23;;;;;;;55.95;29.58;;;5.50;99.90;;;;;;5077253;28;20048;-67
2022/01/16 10:17:52;;;;;;;57.33;31.90;;;5.50;99.90;;;;;;5071060;28;20044;-67
2022/01/16 10:20:19;;;;;;;57.53;29.63;;;5.40;99.90;;;;;;5094035;28;20052;-67
2022/01/16 10:22:50;;;;;;;55.38;30.23;;;5.40;99.90;;;;;;5093135;28;20046;-67
2022/01/16 10:25:34;;;;;;;63.70;30.50;;;5.50;99.90;;;;;;5094560;28;20109;-69
2022/01/16 10:28:02;;;;;;;59.67;31.50;;;5.40;99.90;;;;;;5093801;28;20048;-66
2022/01/16 10:30:43;;;;;;;56.40;29.73;;;5.40;99.90;;;;;;5089739;28;20048;-68
2022/01/16 10:33:19;;;;;;;56.10;29.38;;;5.50;99.90;;;;;;5093322;28;20055;-66
2022/01/16 10:35:47;;;;;;;58.65;29.75;;;5.50;99.90;;;;;;5107810;28;20059;-66
2022/01/16 10:38:45;;;;;;;57.40;30.00;;;5.40;99.90;;;;;;5073455;28;20127;-68
2022/01/16 10:41:13;;;;;;;57.80;30.20;;;5.50;99.90;;;;;;5096465;28;20066;-67
2022/01/16 10:43:42;;;;;;;61.28;30.23;;;5.50;99.90;;;;;;5074454;28;20063;-66
2022/01/16 10:46:10;;;;;;;54.03;29.73;;;5.40;99.90;;;;;;5074375;28;20056;-69
2022/01/16 10:48:36;;;;;;;54.90;29.15;;;5.50;99.90;;;;;;5073257;28;20439;-66
2022/01/16 10:51:17;;;;;;;51.90;27.85;;;5.50;99.90;;;;;;5083839;28;20059;-68
2022/01/16 10:53:45;;;;;;;50.55;27.65;;;5.50;99.90;;;;;;5093993;28;20446;-68
2022/01/16 10:56:11;;;;;;;46.72;25.50;;;5.50;99.90;;;;;;5093598;28;20094;-66
2022/01/16 10:58:36;;;;;;;42.63;23.75;;;5.60;99.90;;;;;;5093188;28;20083;-68
2022/01/16 11:01:10;;;;;;;43.78;24.55;;;5.60;99.90;;;;;;5092738;28;20060;-68
2022/01/16 11:03:46;;;;;;;45.05;24.05;;;5.70;99.90;;;;;;5092998;28;20052;-67
2022/01/16 11:06:18;;;;;;;42.70;23.23;;;5.70;99.90;;;;;;5091350;28;20484;-68
2022/01/16 11:08:57;;;;;;;38.97;22.60;;;5.80;99.90;;;;;;5073813;28;20055;-68
2022/01/16 11:11:27;;;;;;;37.20;21.17;;;5.80;99.90;;;;;;5072882;28;20131;-68
2022/01/16 11:13:55;;;;;;;41.08;22.25;;;5.80;99.90;;;;;;5073041;28;20048;-67
2022/01/16 11:16:23;;;;;;;43.15;21.08;;;5.80;99.90;;;;;;5073829;28;20079;-67
2022/01/16 11:18:51;;;;;;;35.83;19.33;;;5.80;99.90;;;;;;5073946;28;20052;-67
2022/01/16 11:21:31;;;;;;;36.15;20.25;;;5.90;99.90;;;;;;5061346;28;20496;-67
2022/01/16 11:24:24;;;;;;;34.72;19.85;;;5.90;99.90;;;;;;5103358;28;20052;-67
2022/01/16 11:26:51;;;;;;;35.63;18.83;;;5.90;99.90;;;;;;5112761;28;20047;-67
2022/01/16 11:29:17;;;;;;;33.13;18.55;;;5.90;99.90;;;;;;5087908;28;20121;-67
2022/01/16 11:31:43;;;;;;;31.58;17.75;;;5.90;99.90;;;;;;5092523;28;20099;-67
2022/01/16 11:34:10;;;;;;;30.15;18.35;;;;;;;;;;5091849;28;20403;-68
2022/01/16 11:36:36;;;;;;;34.33;17.63;;;6.00;99.90;;;;;;5081542;28;20123;-67
2022/01/16 11:39:06;;;;;;;28.83;17.00;;;6.00;99.90;;;;;;5069355;28;20175;-68
2022/01/16 11:41:39;;;;;;;28.75;17.13;;;6.00;99.90;;;;;;5078601;28;20144;-67
2022/01/16 11:44:07;;;;;;;28.23;17.00;;;6.00;99.90;;;;;;5076325;28;20385;-69
2022/01/16 11:46:39;;;;;;;29.55;15.95;;;6.00;99.90;;;;;;5081292;28;20052;-67
2022/01/16 11:49:06;;;;;;;25.77;14.98;;;6.00;99.90;;;;;;5091515;28;20397;-69
2022/01/16 11:51:35;;;;;;;23.65;13.77;;;6.00;99.90;;;;;;5092279;28;20047;-67
2022/01/16 11:54:15;;;;;;;23.70;13.05;;;6.00;99.90;;;;;;5075693;28;20052;-67
2022/01/16 11:56:41;;;;;;;24.40;13.05;;;6.00;99.90;;;;;;5093539;28;20052;-68
2022/01/16 11:59:41;;;;;;;26.27;12.68;;;6.10;99.90;;;;;;5092257;28;20052;-67
2022/01/16 12:02:09;;;;;;;21.92;12.32;;;6.10;99.90;;;;;;5093330;28;20075;-67
2022/01/16 12:04:38;;;;;;;22.95;13.05;;;6.10;99.90;;;;;;5093568;28;20059;-69
2022/01/16 12:07:12;;;;;;;24.63;11.63;;;6.10;99.90;;;;;;5091737;28;20101;-68
2022/01/16 12:12:12;;;;;;;19.45;11.18;;;6.10;99.90;;;;;;5092485;28;20392;-67
2022/01/16 12:15:00;;;;;;;23.47;10.67;;;6.20;99.90;;;;;;5092236;28;20117;-67
2022/01/16 12:17:47;;;;;;;22.55;11.27;;;6.10;99.90;;;;;;5091414;28;20404;-68
2022/01/16 12:20:13;;;;;;;17.60;10.98;;;6.20;99.90;;;;;;5092939;28;20056;-68
2022/01/16 12:22:57;;;;;;;20.10;10.52;;;6.20;99.90;;;;;;5081900;28;20124;-66
2022/01/16 12:25:50;;;;;;;18.83;10.57;;;6.20;99.90;;;;;;5071850;28;20064;-66
2022/01/16 12:28:17;;;;;;;17.67;11.15;;;6.20;99.90;;;;;;5071963;28;20092;-68
2022/01/16 12:30:55;;;;;;;15.43;9.43;;;6.20;99.90;;;;;;5071216;28;20090;-68
2022/01/16 12:33:39;;;;;;;19.92;10.50;;;6.30;99.90;;;;;;5054759;28;20143;-68
2022/01/16 12:36:14;;;;;;;21.17;10.43;;;6.30;99.90;;;;;;5079506;28;20051;-67
2022/01/16 12:38:39;;;;;;;26.35;18.48;;;6.30;99.90;;;;;;5091675;28;20139;-67
2022/01/16 12:41:12;;;;;;;17.02;10.20;;;6.40;99.90;;;;;;5082015;28;20504;-67
2022/01/16 12:43:44;;;;;;;19.00;10.90;;;6.40;99.90;;;;;;5071770;28;20373;-67
2022/01/16 12:46:16;;;;;;;15.55;8.77;;;6.40;99.90;;;;;;5077209;28;20048;-68
2022/01/16 12:48:44;;;;;;;18.25;9.20;;;6.40;99.90;;;;;;5078506;28;20525;-67
2022/01/16 12:51:11;;;;;;;16.48;9.35;;;6.50;99.90;;;;;;5087236;28;20138;-67
2022/01/16 12:53:41;;;;;;;17.55;9.20;;;6.40;99.90;;;;;;5098677;28;20484;-67
2022/01/16 12:56:30;;;;;;;13.07;8.32;;;6.50;99.90;;;;;;5099960;28;20059;-67
2022/01/16 12:59:11;;;;;;;12.05;7.45;;;6.50;99.90;;;;;;5098251;28;20051;-67
2022/01/16 13:01:42;;;;;;;15.38;8.60;;;6.50;99.90;;;;;;5098856;28;20109;-67
2022/01/16 13:04:19;;;;;;;12.20;7.65;;;6.50;99.90;;;;;;5098551;28;20051;-68
2022/01/16 13:06:45;;;;;;;15.50;8.60;;;6.50;99.90;;;;;;5098977;28;20048;-67
2022/01/16 13:09:12;;;;;;;12.30;7.97;;;6.60;99.90;;;;;;5079829;28;20048;-67
2022/01/16 13:11:47;;;;;;;13.50;7.95;;;6.60;99.90;;;;;;5079227;28;20443;-68
2022/01/16 13:14:19;;;;;;;14.02;7.65;;;6.60;99.90;;;;;;5089421;28;20048;-68
2022/01/16 13:16:48;;;;;;;14.40;7.55;;;6.60;99.90;;;;;;5098207;28;20135;-68
2022/01/16 13:19:28;;;;;;;12.82;7.70;;;6.60;99.90;;;;;;5099813;28;20124;-67
2022/01/16 13:22:04;;;;;;;13.52;8.60;;;6.60;99.90;;;;;;5086775;28;20048;-68
2022/01/16 13:24:36;;;;;;;16.98;8.68;;;6.60;99.90;;;;;;5079232;28;20048;-66